createdAt,value
2018-01-17T00:09:03.264Z,8.68
2018-01-17T00:11:30.109Z,7.57
2018-01-17T00:16:31.228Z,6.05
2018-01-17T00:21:32.649Z,7.80
2018-01-17T00:24:06.454Z,5.45
2018-01-17T00:29:08.039Z,8.27
2018-01-17T00:31:36.801Z,6.80
2018-01-17T00:39:08.219Z,7.72
2018-01-17T00:46:36.958Z,6.40
2018-01-17T00:49:03.702Z,6.28
2018-01-17T00:51:30.782Z,4.78
2018-01-17T00:56:29.610Z,8.07
2018-01-17T01:06:35.315Z,6.03
2018-01-17T01:09:02.968Z,8.00
2018-01-17T01:11:29.785Z,5.75
2018-01-17T01:13:56.819Z,7.40
2018-01-17T01:16:23.604Z,7.00
2018-01-17T01:21:21.797Z,7.93
2018-01-17T01:26:21.398Z,5.05
2018-01-17T01:28:48.176Z,10.45
2018-01-17T01:33:46.887Z,8.70
2018-01-17T01:36:14.418Z,8.63
2018-01-17T01:38:42.062Z,6.68
2018-01-17T01:41:10.892Z,7.60
2018-01-17T01:43:38.357Z,5.70
2018-01-17T01:46:05.123Z,6.68
2018-01-17T01:48:32.328Z,6.40
2018-01-17T01:50:59.119Z,7.90
2018-01-17T01:53:32.390Z,9.20
2018-01-17T01:56:03.343Z,5.05
2018-01-17T02:01:01.825Z,5.85
2018-01-17T02:03:28.602Z,11.75
2018-01-17T02:05:55.349Z,9.27
2018-01-17T02:08:22.131Z,6.15
2018-01-17T02:10:48.874Z,6.55
2018-01-17T02:13:15.614Z,7.93
2018-01-17T02:15:42.717Z,11.20
2018-01-17T02:18:09.455Z,7.43
2018-01-17T02:20:36.313Z,9.85
2018-01-17T02:23:03.756Z,7.12
2018-01-17T02:25:31.460Z,5.47
2018-01-17T02:28:01.289Z,6.35
2018-01-17T02:30:28.036Z,6.93
2018-01-17T02:32:55.901Z,10.85
2018-01-17T02:35:22.972Z,10.75
2018-01-17T02:37:52.118Z,10.63
2018-01-17T02:40:24.782Z,10.52
2018-01-17T02:42:52.298Z,5.90
2018-01-17T02:45:19.881Z,9.10
2018-01-17T02:47:46.954Z,10.85
2018-01-17T02:50:13.675Z,6.68
2018-01-17T02:52:42.367Z,4.20
2018-01-17T02:57:43.608Z,2.87
2018-01-17T03:00:11.326Z,1.45
2018-01-17T03:02:39.010Z,1.77
2018-01-17T03:05:06.792Z,3.00
2018-01-17T03:07:34.453Z,2.70
2018-01-17T03:10:01.175Z,1.95
2018-01-17T03:12:28.816Z,2.30
2018-01-17T03:14:55.543Z,2.20
2018-01-17T03:17:24.468Z,2.30
2018-01-17T03:19:53.741Z,2.65
2018-01-17T03:22:20.782Z,2.55
2018-01-17T03:24:48.244Z,2.20
2018-01-17T03:27:15.666Z,2.55
2018-01-17T03:29:43.805Z,2.20
2018-01-17T03:32:10.517Z,2.50
2018-01-17T03:34:38.699Z,2.50
2018-01-17T03:37:05.470Z,3.10
2018-01-17T03:39:32.745Z,2.85
2018-01-17T03:41:59.927Z,2.53
2018-01-17T03:44:27.311Z,2.87
2018-01-17T03:46:54.735Z,4.80
2018-01-17T03:49:21.474Z,2.25
2018-01-17T03:51:48.458Z,1.98
2018-01-17T03:54:15.769Z,3.05
2018-01-17T03:56:42.538Z,1.60
2018-01-17T03:59:09.257Z,3.10
2018-01-17T04:01:36.555Z,1.62
2018-01-17T04:04:04.313Z,3.17
2018-01-17T04:06:31.139Z,2.50
2018-01-17T04:08:58.576Z,2.75
2018-01-17T04:11:26.110Z,5.55
2018-01-17T04:13:52.854Z,5.37
2018-01-17T04:16:23.797Z,3.28
2018-01-17T04:18:50.609Z,4.93
2018-01-17T04:21:17.397Z,5.25
2018-01-17T04:23:44.094Z,3.87
2018-01-17T04:26:16.109Z,3.75
2018-01-17T04:28:43.019Z,4.55
2018-01-17T04:31:10.591Z,5.00
2018-01-17T04:33:39.579Z,4.43
2018-01-17T04:36:07.457Z,3.67
2018-01-17T04:38:34.590Z,4.70
2018-01-17T04:41:01.413Z,6.20
2018-01-17T04:43:28.162Z,5.72
2018-01-17T04:45:55.562Z,7.15
2018-01-17T04:48:22.286Z,9.68
2018-01-17T04:50:49.087Z,9.25
2018-01-17T04:53:15.814Z,9.23
2018-01-17T04:55:42.652Z,9.88
2018-01-17T04:58:09.479Z,10.90
2018-01-17T05:00:36.234Z,11.02
2018-01-17T05:03:03.543Z,12.98
2018-01-17T05:10:32.902Z,10.40
2018-01-17T05:13:01.629Z,11.40
2018-01-17T05:15:28.430Z,10.55
2018-01-17T05:17:55.424Z,9.52
2018-01-17T05:20:23.018Z,14.00
2018-01-17T05:22:50.320Z,9.25
2018-01-17T05:27:52.034Z,13.15
2018-01-17T05:30:18.818Z,11.82
2018-01-17T05:32:49.062Z,12.05
2018-01-17T05:35:15.826Z,10.77
2018-01-17T05:37:42.565Z,12.30
2018-01-17T05:40:09.379Z,10.98
2018-01-17T05:42:39.031Z,11.95
2018-01-17T05:45:06.435Z,13.43
2018-01-17T05:47:43.324Z,12.57
2018-01-17T05:50:10.086Z,14.48
2018-01-17T05:52:36.822Z,16.40
2018-01-17T05:55:03.835Z,15.88
2018-01-17T05:57:31.654Z,13.30
2018-01-17T05:59:58.438Z,15.60
2018-01-17T06:04:57.170Z,15.48
2018-01-17T06:07:23.902Z,14.50
2018-01-17T06:12:22.640Z,15.57
2018-01-17T06:17:20.870Z,15.02
2018-01-17T06:22:20.390Z,14.35
2018-01-17T06:24:52.373Z,12.65
2018-01-17T06:27:19.843Z,12.27
2018-01-17T06:29:46.598Z,13.80
2018-01-17T06:34:45.871Z,11.12
2018-01-17T06:39:46.153Z,12.02
2018-01-17T06:42:12.878Z,9.00
2018-01-17T06:44:41.543Z,9.20
2018-01-17T06:47:08.314Z,10.77
2018-01-17T06:49:35.062Z,9.70
2018-01-17T06:52:01.810Z,6.30
2018-01-17T06:56:59.544Z,6.12
2018-01-17T06:59:26.262Z,6.87
2018-01-17T07:01:53.001Z,7.43
2018-01-17T07:04:19.939Z,6.82
2018-01-17T07:06:46.664Z,5.60
2018-01-17T07:11:47.192Z,6.75
2018-01-17T07:14:13.922Z,6.03
2018-01-17T07:16:40.662Z,8.07
2018-01-17T07:19:07.406Z,5.37
2018-01-17T07:21:34.104Z,5.20
2018-01-17T07:24:00.845Z,6.32
2018-01-17T07:26:27.561Z,7.95
2018-01-17T07:28:54.333Z,4.35
2018-01-17T07:31:21.070Z,9.77
2018-01-17T07:33:48.285Z,12.20
2018-01-17T07:36:15.012Z,7.40
2018-01-17T07:38:42.656Z,7.50
2018-01-17T07:41:11.024Z,5.95
2018-01-17T07:43:37.748Z,6.80
2018-01-17T07:46:04.498Z,6.68
2018-01-17T07:48:31.274Z,9.00
2018-01-17T07:50:58.006Z,6.78
2018-01-17T07:55:55.738Z,5.57
2018-01-17T07:58:24.092Z,8.55
2018-01-17T08:03:22.530Z,6.85
2018-01-17T08:05:49.257Z,6.72
2018-01-17T08:08:15.996Z,11.27
2018-01-17T08:10:42.726Z,8.65
2018-01-17T08:13:09.453Z,5.90
2018-01-17T08:15:36.326Z,8.38
2018-01-17T08:18:03.042Z,6.25
2018-01-17T08:20:29.839Z,5.80
2018-01-17T08:22:58.503Z,7.03
2018-01-17T08:25:25.277Z,6.70
2018-01-17T08:27:52.006Z,8.20
2018-01-17T08:30:18.750Z,8.50
2018-01-17T08:32:47.151Z,12.20
2018-01-17T08:35:13.915Z,7.40
2018-01-17T08:37:40.646Z,5.47
2018-01-17T08:40:07.394Z,5.43
2018-01-17T08:42:34.137Z,4.72
2018-01-17T08:45:00.878Z,4.65
2018-01-17T08:47:27.612Z,4.82
2018-01-17T08:49:54.408Z,7.85
2018-01-17T08:52:21.143Z,5.35
2018-01-17T08:54:47.875Z,8.00
2018-01-17T08:57:14.622Z,6.82
2018-01-17T08:59:58.173Z,6.43
2018-01-17T09:02:24.886Z,6.20
2018-01-17T09:07:22.842Z,5.65
2018-01-17T09:09:49.880Z,4.93
2018-01-17T09:14:48.501Z,5.78
2018-01-17T09:19:47.428Z,6.43
2018-01-17T09:22:14.169Z,7.32
2018-01-17T09:24:41.514Z,9.55
2018-01-17T09:32:11.081Z,5.40
2018-01-17T09:34:37.802Z,4.90
2018-01-17T09:37:04.534Z,4.60
2018-01-17T09:44:34.952Z,5.87
2018-01-17T09:52:04.174Z,5.35
2018-01-17T09:54:30.901Z,6.70
2018-01-17T09:56:58.026Z,6.70
2018-01-17T09:59:25.561Z,5.68
2018-01-17T10:04:23.314Z,5.97
2018-01-17T10:06:50.334Z,5.60
2018-01-17T10:09:17.815Z,6.47
2018-01-17T10:11:44.581Z,5.78
2018-01-17T10:14:11.347Z,6.85
2018-01-17T10:16:38.514Z,6.05
2018-01-17T10:19:05.246Z,6.45
2018-01-17T10:21:32.310Z,6.12
2018-01-17T10:23:59.036Z,8.23
2018-01-17T10:26:25.982Z,5.95
2018-01-17T10:28:53.001Z,5.55
2018-01-17T10:31:19.722Z,7.60
2018-01-17T10:33:46.974Z,8.18
2018-01-17T10:36:14.023Z,7.60
2018-01-17T10:38:41.184Z,7.37
2018-01-17T10:41:07.954Z,7.85
2018-01-17T10:43:34.728Z,7.12
2018-01-17T10:46:01.435Z,7.90
2018-01-17T10:48:28.162Z,5.65
2018-01-17T10:50:55.407Z,10.15
2018-01-17T10:53:22.142Z,7.75
2018-01-17T10:55:48.879Z,7.87
2018-01-17T10:58:15.655Z,11.18
2018-01-17T11:00:46.975Z,10.48
2018-01-17T11:03:13.705Z,8.60
2018-01-17T11:05:42.223Z,7.47
2018-01-17T11:08:11.547Z,9.35
2018-01-17T11:10:39.467Z,11.55
2018-01-17T11:13:07.161Z,7.65
2018-01-17T11:15:34.798Z,8.68
2018-01-17T11:18:07.864Z,7.15
2018-01-17T11:20:34.610Z,5.18
2018-01-17T11:23:02.366Z,8.65
2018-01-17T11:25:29.143Z,6.72
2018-01-17T11:28:00.648Z,7.03
2018-01-17T11:30:31.334Z,8.07
2018-01-17T11:32:58.478Z,6.85
2018-01-17T11:35:26.175Z,7.43
2018-01-17T11:37:53.126Z,14.87
2018-01-17T11:40:20.121Z,12.15
2018-01-17T11:45:21.539Z,8.85
2018-01-17T11:47:51.118Z,7.78
2018-01-17T11:50:18.371Z,8.13
2018-01-17T11:52:45.634Z,8.07
2018-01-17T12:02:55.710Z,10.27
2018-01-17T12:05:24.486Z,9.02
2018-01-17T12:07:51.358Z,9.77
2018-01-17T12:10:18.750Z,11.30
2018-01-17T12:12:45.571Z,7.28
2018-01-17T12:17:46.658Z,6.55
2018-01-17T12:22:48.528Z,6.57
2018-01-17T12:25:15.250Z,6.75
2018-01-17T12:30:12.982Z,6.15
2018-01-17T12:32:40.183Z,4.85
2018-01-17T12:37:43.766Z,7.28
2018-01-17T12:40:11.068Z,7.70
2018-01-17T12:42:37.829Z,7.45
2018-01-17T12:47:39.366Z,7.55
2018-01-17T12:55:10.788Z,6.15
2018-01-17T13:00:08.536Z,9.55
2018-01-17T13:02:35.330Z,7.18
2018-01-17T13:05:02.054Z,6.60
2018-01-17T13:09:59.850Z,9.23
2018-01-17T13:12:26.875Z,9.57
2018-01-17T13:14:57.682Z,11.38
2018-01-17T13:17:24.484Z,8.55
2018-01-17T13:19:51.237Z,15.07
2018-01-17T13:22:18.903Z,10.45
2018-01-17T13:27:17.387Z,11.05
2018-01-17T13:29:44.830Z,10.15
2018-01-17T13:32:11.571Z,10.70
2018-01-17T13:34:38.258Z,9.35
2018-01-17T13:37:05.094Z,10.38
2018-01-17T13:39:31.838Z,10.45
2018-01-17T13:41:58.925Z,11.48
2018-01-17T13:44:25.714Z,11.73
2018-01-17T13:46:52.458Z,11.98
2018-01-17T13:49:19.262Z,11.38
2018-01-17T13:51:49.679Z,10.73
2018-01-17T13:54:16.410Z,9.27
2018-01-17T13:56:43.117Z,8.05
2018-01-17T13:59:10.107Z,9.50
2018-01-17T14:01:36.908Z,8.07
2018-01-17T14:04:03.643Z,7.68
2018-01-17T14:06:30.362Z,6.60
2018-01-17T14:08:57.113Z,5.30
2018-01-17T14:11:23.834Z,4.22
2018-01-17T14:13:50.579Z,3.83
2018-01-17T14:16:17.321Z,3.45
2018-01-17T14:18:44.041Z,3.47
2018-01-17T14:21:11.554Z,3.80
2018-01-17T14:23:38.366Z,3.97
2018-01-17T14:26:05.234Z,3.35
2018-01-17T14:28:31.989Z,5.37
2018-01-17T14:30:58.990Z,4.32
2018-01-17T14:33:25.849Z,3.10
2018-01-17T14:35:53.070Z,2.45
2018-01-17T14:38:19.835Z,2.55
2018-01-17T14:40:46.588Z,3.92
2018-01-17T14:43:16.122Z,2.62
2018-01-17T14:45:43.181Z,2.83
2018-01-17T14:48:09.886Z,2.30
2018-01-17T14:50:36.650Z,3.92
2018-01-17T14:53:03.376Z,4.55
2018-01-17T14:55:30.435Z,4.00
2018-01-17T14:57:57.159Z,4.80
2018-01-17T15:00:23.894Z,3.30
2018-01-17T15:02:50.611Z,6.47
2018-01-17T15:05:17.563Z,6.40
2018-01-17T15:07:44.570Z,3.40
2018-01-17T15:10:11.277Z,4.18
2018-01-17T15:12:37.990Z,4.47
2018-01-17T15:15:04.813Z,4.60
2018-01-17T15:17:35.069Z,2.58
2018-01-17T15:20:02.079Z,2.95
2018-01-17T15:22:28.813Z,7.12
2018-01-17T15:24:55.526Z,4.03
2018-01-17T15:27:22.589Z,5.35
2018-01-17T15:29:51.142Z,4.82
2018-01-17T15:32:17.950Z,3.50
2018-01-17T15:34:45.055Z,5.07
2018-01-17T15:37:11.829Z,3.05
2018-01-17T15:39:38.630Z,4.28
2018-01-17T15:42:07.200Z,4.87
2018-01-17T15:44:33.942Z,6.30
2018-01-17T15:47:00.646Z,6.90
2018-01-17T15:49:27.374Z,7.55
2018-01-17T15:51:54.141Z,4.60
2018-01-17T15:54:20.863Z,4.40
2018-01-17T15:56:47.595Z,4.10
2018-01-17T15:59:14.381Z,3.70
2018-01-17T16:01:41.138Z,4.75
2018-01-17T16:04:07.861Z,6.85
2018-01-17T16:06:34.658Z,4.60
2018-01-17T16:09:01.714Z,4.97
2018-01-17T16:11:28.443Z,4.85
2018-01-17T16:13:55.394Z,5.55
2018-01-17T16:16:23.127Z,7.12
2018-01-17T16:18:49.854Z,7.47
2018-01-17T16:21:19.051Z,7.87
2018-01-17T16:23:45.786Z,4.50
2018-01-17T16:26:15.262Z,4.97
2018-01-17T16:28:42.080Z,5.60
2018-01-17T16:31:08.782Z,9.15
2018-01-17T16:33:36.143Z,5.70
2018-01-17T16:36:02.987Z,2.12
2018-01-17T16:38:29.762Z,4.07
2018-01-17T16:40:56.452Z,6.00
2018-01-17T16:43:23.168Z,8.70
2018-01-17T16:45:50.166Z,4.00
2018-01-17T16:48:16.922Z,11.93
2018-01-17T16:50:47.260Z,5.03
2018-01-17T16:53:14.018Z,17.98
2018-01-17T16:55:41.082Z,14.95
2018-01-17T16:58:07.862Z,10.95
2018-01-17T17:00:34.878Z,6.82
2018-01-17T17:03:01.917Z,9.40
2018-01-17T17:05:28.653Z,10.63
2018-01-17T17:07:55.397Z,8.52
2018-01-17T17:10:22.183Z,11.45
2018-01-17T17:12:48.913Z,7.90
2018-01-17T17:15:15.677Z,5.93
2018-01-17T17:17:42.493Z,8.77
2018-01-17T17:20:09.298Z,5.55
2018-01-17T17:22:36.359Z,8.52
2018-01-17T17:25:07.344Z,3.92
2018-01-17T17:30:06.788Z,6.10
2018-01-17T17:32:33.619Z,10.23
2018-01-17T17:35:00.659Z,4.32
2018-01-17T17:37:28.210Z,6.28
2018-01-17T17:39:54.917Z,6.95
2018-01-17T17:42:21.656Z,7.82
2018-01-17T17:44:48.706Z,9.75
2018-01-17T17:47:15.473Z,6.62
2018-01-17T17:49:42.214Z,8.27
2018-01-17T17:52:08.928Z,7.32
2018-01-17T17:54:38.258Z,9.90
2018-01-17T17:57:07.137Z,6.62
2018-01-17T17:59:35.387Z,6.75
2018-01-17T18:02:05.678Z,11.07
2018-01-17T18:04:32.788Z,5.35
2018-01-17T18:07:03.198Z,5.90
2018-01-17T18:09:31.704Z,7.90
2018-01-17T18:11:58.534Z,7.82
2018-01-17T18:14:25.549Z,7.82
2018-01-17T18:16:54.291Z,8.35
2018-01-17T18:19:21.059Z,4.22
2018-01-17T18:21:47.786Z,5.03
2018-01-17T18:24:14.486Z,5.40
2018-01-17T18:26:41.320Z,5.28
2018-01-17T18:29:09.463Z,4.20
2018-01-17T18:31:37.149Z,3.97
2018-01-17T18:34:03.895Z,5.87
2018-01-17T18:36:30.702Z,2.78
2018-01-17T18:38:59.366Z,2.53
2018-01-17T18:41:26.118Z,5.85
2018-01-17T18:43:54.125Z,3.90
2018-01-17T18:46:20.838Z,5.10
2018-01-17T18:48:49.639Z,4.43
2018-01-17T18:51:18.007Z,7.82
2018-01-17T18:53:44.738Z,4.85
2018-01-17T18:56:13.391Z,5.80
2018-01-17T18:58:41.310Z,5.03
2018-01-17T19:01:09.386Z,7.07
2018-01-17T19:03:36.129Z,6.60
2018-01-17T19:06:02.854Z,11.10
2018-01-17T19:08:30.558Z,7.70
2018-01-17T19:10:57.771Z,5.03
2018-01-17T19:13:26.686Z,8.88
2018-01-17T19:15:53.419Z,9.13
2018-01-17T19:18:22.430Z,7.65
2018-01-17T19:23:26.784Z,8.20
2018-01-17T19:25:54.611Z,8.07
2018-01-17T19:28:21.349Z,14.00
2018-01-17T19:30:48.193Z,10.88
2018-01-17T19:33:15.194Z,9.15
2018-01-17T19:35:43.353Z,9.88
2018-01-17T19:38:20.252Z,7.97
2018-01-17T19:40:47.207Z,8.07
2018-01-17T19:43:14.287Z,10.65
2018-01-17T19:45:43.325Z,12.07
2018-01-17T19:48:13.416Z,7.70
2018-01-17T19:50:43.064Z,9.23
2018-01-17T19:53:13.524Z,8.30
2018-01-17T19:55:40.865Z,8.82
2018-01-17T19:58:10.042Z,9.65
2018-01-17T20:00:37.743Z,10.45
2018-01-17T20:05:36.510Z,10.10
2018-01-17T20:10:44.383Z,9.15
2018-01-17T20:15:42.689Z,7.50
2018-01-17T20:18:12.179Z,6.37
2018-01-17T20:20:42.611Z,10.15
2018-01-17T20:23:10.209Z,7.22
2018-01-17T20:25:39.059Z,6.85
2018-01-17T20:30:41.128Z,6.97
2018-01-17T20:33:07.934Z,9.05
2018-01-17T20:35:35.284Z,9.77
2018-01-17T20:43:13.726Z,4.50
2018-01-17T20:48:19.203Z,10.95
2018-01-17T20:53:19.246Z,4.72
2018-01-17T20:58:17.134Z,8.30
2018-01-17T21:00:45.672Z,6.55
2018-01-17T21:05:45.023Z,9.98
2018-01-17T21:08:17.214Z,5.28
2018-01-17T21:13:16.305Z,11.85
2018-01-17T21:15:50.388Z,7.65
2018-01-17T21:18:23.381Z,10.35
2018-01-17T21:20:50.422Z,6.93
2018-01-17T21:23:24.818Z,9.25
2018-01-17T21:25:51.554Z,8.40
2018-01-17T21:28:22.324Z,13.90
2018-01-17T21:33:22.194Z,11.00
2018-01-17T21:35:49.688Z,9.68
2018-01-17T21:38:18.158Z,7.18
2018-01-17T21:40:47.060Z,7.45
2018-01-17T21:51:03.212Z,6.95
2018-01-17T21:56:06.260Z,4.80
2018-01-17T21:58:33.915Z,6.80
2018-01-17T22:01:01.676Z,3.90
2018-01-17T22:03:29.869Z,6.87
2018-01-17T22:05:58.302Z,9.57
2018-01-17T22:16:07.422Z,9.05
2018-01-17T22:21:06.242Z,7.00
2018-01-17T22:23:34.784Z,6.90
2018-01-17T22:26:01.490Z,8.02
2018-01-17T22:28:29.134Z,7.80
2018-01-17T22:33:31.101Z,13.73
2018-01-17T22:43:36.323Z,9.52
2018-01-17T22:46:03.054Z,10.85
2018-01-17T22:48:32.914Z,8.65
2018-01-17T22:56:04.605Z,8.82
2018-01-17T23:06:07.706Z,9.05
2018-01-17T23:19:02.691Z,7.85
2018-01-17T23:21:33.508Z,9.38
2018-01-17T23:24:00.595Z,11.00
2018-01-17T23:26:27.604Z,7.28
2018-01-17T23:31:26.315Z,9.13
2018-01-17T23:33:53.702Z,13.13
2018-01-17T23:36:25.787Z,9.95
2018-01-17T23:38:54.832Z,11.40
2018-01-17T23:41:25.355Z,16.17
2018-01-17T23:43:53.212Z,14.77
2018-01-17T23:46:22.443Z,7.78
2018-01-17T23:51:28.837Z,10.02
